Time;durP1;ratioP1;P1;durP2;ratioP2;P2;SDS_P1;SDS_P2;PMS_P1;PMS_P2;Temp;Humidity;BMP_temperature;BMP_pressure;BME280_temperature;BME280_humidity;BME280_pressure;Samples;Min_cycle;Max_cycle;Signal;HPM_P1;HPM_P2
2022/11/18 00:00:14;;;;;;;;;1.33;1.33;;;;;;;;4899673;29;45458;-84
2022/11/18 00:02:39;;;;;;;;;1.00;1.00;;;;;;;;4899206;28;45623;-83
2022/11/18 00:05:05;;;;;;;;;1.00;1.00;;;;;;;;4898500;28;45618;-84
2022/11/18 00:07:30;;;;;;;;;1.00;1.00;;;;;;;;4896984;29;45623;-84
2022/11/18 00:09:56;;;;;;;;;2.00;1.00;;;;;;;;4895903;29;45559;-83
2022/11/18 00:14:57;;;;;;;;;2.00;2.00;;;;;;;;4994668;23;45531;-81
2022/11/18 00:17:22;;;;;;;;;3.33;0.33;;;;;;;;4864993;29;47246;-79
2022/11/18 00:19:47;;;;;;;;;1.00;1.00;;;;;;;;4859882;29;45528;-82
2022/11/18 00:22:13;;;;;;;;;0.33;0.33;;;;;;;;4861693;29;45694;-82
2022/11/18 00:24:38;;;;;;;;;0.00;0.00;;;;;;;;4861673;29;45435;-82
2022/11/18 00:27:04;;;;;;;;;1.00;1.00;;;;;;;;4859630;29;45443;-82
2022/11/18 00:29:30;;;;;;;;;2.00;0.67;;;;;;;;4860158;29;45682;-82
2022/11/18 00:31:56;;;;;;;;;1.00;1.00;;;;;;;;4861816;29;45476;-82
2022/11/18 00:34:21;;;;;;;;;1.00;1.00;;;;;;;;4860909;29;45550;-83
2022/11/18 00:36:47;;;;;;;;;0.67;0.00;;;;;;;;4863226;29;46330;-80
2022/11/18 00:39:13;;;;;;;;;0.67;0.00;;;;;;;;4860953;29;45628;-82
2022/11/18 00:44:22;;;;;;;;;0.00;0.00;;;;;;;;4855791;29;45520;-82
2022/11/18 00:46:48;;;;;;;;;0.00;0.00;;;;;;;;4860143;29;45545;-82
2022/11/18 00:49:13;;;;;;;;;0.00;0.00;;;;;;;;4859296;29;46013;-81
2022/11/18 00:51:38;;;;;;;;;0.00;0.00;;;;;;;;4863684;29;45443;-81
2022/11/18 00:54:04;;;;;;;;;1.00;1.00;;;;;;;;4862071;29;45509;-82
2022/11/18 00:56:29;;;;;;;;;0.00;0.00;;;;;;;;4860785;29;47381;-82
2022/11/18 00:58:55;;;;;;;;;0.00;0.00;;;;;;;;4859754;29;45517;-80
2022/11/18 01:01:20;;;;;;;;;0.00;0.00;;;;;;;;4858746;29;46925;-83
2022/11/18 01:03:46;;;;;;;;;1.67;0.33;;;;;;;;4863028;29;45398;-82
2022/11/18 01:06:12;;;;;;;;;2.67;1.00;;;;;;;;4859872;29;45539;-82
2022/11/18 01:08:37;;;;;;;;;0.00;0.00;;;;;;;;4870098;29;45625;-81
2022/11/18 01:13:50;;;;;;;;;0.25;0.25;;;;;;;;4860372;29;45332;-81
2022/11/18 01:16:19;;;;;;;;;0.25;0.25;;;;;;;;4843518;29;48346;-82
2022/11/18 01:18:45;;;;;;;;;1.00;0.00;;;;;;;;4849899;29;46927;-82
2022/11/18 01:21:10;;;;;;;;;2.00;1.00;;;;;;;;4860447;29;45867;-82
2022/11/18 01:23:35;;;;;;;;;0.00;0.00;;;;;;;;4864483;29;45309;-82
2022/11/18 01:26:03;;;;;;;;;1.00;1.00;;;;;;;;4866751;29;46280;-82
2022/11/18 01:28:28;;;;;;;;;2.00;0.00;;;;;;;;4863065;29;45445;-80
2022/11/18 01:30:54;;;;;;;;;0.00;0.00;;;;;;;;4862413;29;46170;-81
2022/11/18 01:33:19;;;;;;;;;1.00;1.00;;;;;;;;4864312;29;45534;-82
2022/11/18 01:35:44;;;;;;;;;0.00;0.00;;;;;;;;4863601;29;45928;-81
2022/11/18 01:38:11;;;;;;;;;0.00;0.00;;;;;;;;4863781;29;45562;-82
2022/11/18 01:40:37;;;;;;;;;1.00;0.00;;;;;;;;4866550;29;45416;-82
2022/11/18 01:43:04;;;;;;;;;2.00;1.00;;;;;;;;4869129;29;46225;-81
2022/11/18 01:45:32;;;;;;;;;0.00;0.00;;;;;;;;4862940;29;48150;-82
2022/11/18 01:48:08;;;;;;;;;1.67;0.00;;;;;;;;4862737;29;45570;-80
2022/11/18 01:50:35;;;;;;;;;0.00;0.00;;;;;;;;4862309;29;46688;-81
2022/11/18 01:53:05;;;;;;;;;2.00;0.00;;;;;;;;4864231;29;45535;-81
2022/11/18 01:55:32;;;;;;;;;0.50;0.50;;;;;;;;4863473;29;45608;-81
2022/11/18 01:58:05;;;;;;;;;1.00;0.00;;;;;;;;4863048;29;45648;-83
2022/11/18 02:00:30;;;;;;;;;0.00;0.00;;;;;;;;4861015;29;45520;-81
2022/11/18 02:02:56;;;;;;;;;0.00;0.00;;;;;;;;4869527;29;45425;-81
2022/11/18 02:05:21;;;;;;;;;0.00;0.00;;;;;;;;4862377;29;46393;-81
2022/11/18 02:07:46;;;;;;;;;0.00;0.00;;;;;;;;4862843;29;45830;-82
2022/11/18 02:10:20;;;;;;;;;1.00;1.00;;;;;;;;4862178;29;45459;-82
2022/11/18 02:12:46;;;;;;;;;0.00;0.00;;;;;;;;4864169;29;45885;-81
2022/11/18 02:15:11;;;;;;;;;0.67;0.67;;;;;;;;4862250;29;45614;-82
2022/11/18 02:17:36;;;;;;;;;0.00;0.00;;;;;;;;4862852;29;45769;-81
2022/11/18 02:20:07;;;;;;;;;0.50;0.00;;;;;;;;4863298;29;45322;-81
2022/11/18 02:22:39;;;;;;;;;0.00;0.00;;;;;;;;4862156;29;45746;-82
2022/11/18 02:25:07;;;;;;;;;0.00;0.00;;;;;;;;4868091;29;46012;-80
2022/11/18 02:27:38;;;;;;;;;0.00;0.00;;;;;;;;4870505;29;45622;-81
2022/11/18 02:30:07;;;;;;;;;0.00;0.00;;;;;;;;4864202;29;45518;-81
2022/11/18 02:32:53;;;;;;;;;0.00;0.00;;;;;;;;4865024;29;45850;-80
2022/11/18 02:35:18;;;;;;;;;0.00;0.00;;;;;;;;4859707;29;47001;-81
2022/11/18 02:37:49;;;;;;;;;0.00;0.00;;;;;;;;4866818;29;45908;-80
2022/11/18 02:40:29;;;;;;;;;0.00;0.00;;;;;;;;4863838;29;45614;-81
2022/11/18 02:43:01;;;;;;;;;1.00;0.00;;;;;;;;4862655;29;45573;-81
2022/11/18 02:45:27;;;;;;;;;0.00;0.00;;;;;;;;4865885;29;45560;-81
2022/11/18 02:47:57;;;;;;;;;2.00;0.00;;;;;;;;4860202;29;45422;-82
2022/11/18 02:50:25;;;;;;;;;0.67;0.00;;;;;;;;4857011;29;46255;-81
2022/11/18 02:52:53;;;;;;;;;0.67;0.00;;;;;;;;4862263;29;45624;-80
2022/11/18 02:55:20;;;;;;;;;0.00;0.00;;;;;;;;4862076;29;46198;-80
2022/11/18 02:57:46;;;;;;;;;0.00;0.00;;;;;;;;4868224;29;45506;-81
2022/11/18 03:00:12;;;;;;;;;0.00;0.00;;;;;;;;4862565;29;45854;-81
2022/11/18 03:02:41;;;;;;;;;0.00;0.00;;;;;;;;4861078;29;45547;-80
2022/11/18 03:05:09;;;;;;;;;0.00;0.00;;;;;;;;4859418;29;47187;-79
2022/11/18 03:07:35;;;;;;;;;0.00;0.00;;;;;;;;4862007;29;45614;-80
2022/11/18 03:10:01;;;;;;;;;1.00;0.00;;;;;;;;4861922;29;45772;-80
2022/11/18 03:12:34;;;;;;;;;0.00;0.00;;;;;;;;4862007;29;45726;-80
2022/11/18 03:14:59;;;;;;;;;0.00;0.00;;;;;;;;4868776;29;46531;-82
2022/11/18 03:17:30;;;;;;;;;2.00;0.00;;;;;;;;4866732;29;45528;-82
2022/11/18 03:19:58;;;;;;;;;1.00;0.00;;;;;;;;4859251;29;45641;-82
2022/11/18 03:22:30;;;;;;;;;0.00;0.00;;;;;;;;4863953;29;45628;-81
2022/11/18 03:25:15;;;;;;;;;0.00;0.00;;;;;;;;4868122;29;45693;-81
2022/11/18 03:27:43;;;;;;;;;0.00;0.00;;;;;;;;4866197;29;45534;-82
2022/11/18 03:30:10;;;;;;;;;0.00;0.00;;;;;;;;4860383;29;45418;-80
2022/11/18 03:32:38;;;;;;;;;3.33;0.00;;;;;;;;4874707;29;45403;-82
2022/11/18 03:35:06;;;;;;;;;0.67;0.00;;;;;;;;4861861;29;45937;-81
2022/11/18 03:37:33;;;;;;;;;0.00;0.00;;;;;;;;4859811;29;45481;-81
2022/11/18 03:40:03;;;;;;;;;0.67;0.00;;;;;;;;4863557;29;45504;-82
2022/11/18 03:42:31;;;;;;;;;0.00;0.00;;;;;;;;4862545;29;45499;-81
2022/11/18 03:45:05;;;;;;;;;0.00;0.00;;;;;;;;4859738;29;45622;-82
2022/11/18 03:47:34;;;;;;;;;0.00;0.00;;;;;;;;4863717;29;45394;-80
2022/11/18 03:50:07;;;;;;;;;0.00;0.00;;;;;;;;4859084;29;45574;-80
2022/11/18 03:52:34;;;;;;;;;0.00;0.00;;;;;;;;4860471;29;45505;-80
2022/11/18 03:55:02;;;;;;;;;0.00;0.00;;;;;;;;4860765;29;46428;-80
2022/11/18 03:57:41;;;;;;;;;0.00;0.00;;;;;;;;4860814;29;45272;-81
2022/11/18 04:00:12;;;;;;;;;0.00;0.00;;;;;;;;4866661;29;45682;-80
2022/11/18 04:02:38;;;;;;;;;0.00;0.00;;;;;;;;4862926;29;45361;-81
2022/11/18 04:05:05;;;;;;;;;1.00;0.00;;;;;;;;4859641;29;45621;-80
2022/11/18 04:07:37;;;;;;;;;0.00;0.00;;;;;;;;4860179;29;45563;-81
2022/11/18 04:10:14;;;;;;;;;0.00;0.00;;;;;;;;4867489;29;45513;-80
2022/11/18 04:12:43;;;;;;;;;0.00;0.00;;;;;;;;4869858;29;45718;-80
2022/11/18 04:15:16;;;;;;;;;1.00;0.00;;;;;;;;4862365;29;46706;-80
2022/11/18 04:17:42;;;;;;;;;0.00;0.00;;;;;;;;4863292;29;45530;-81
2022/11/18 04:20:18;;;;;;;;;0.00;0.00;;;;;;;;4863776;29;45610;-82
2022/11/18 04:22:44;;;;;;;;;0.00;0.00;;;;;;;;4863473;29;45413;-81
2022/11/18 04:25:09;;;;;;;;;0.00;0.00;;;;;;;;4861866;29;46419;-82
2022/11/18 04:27:35;;;;;;;;;0.00;0.00;;;;;;;;4867703;29;45890;-81
2022/11/18 04:30:00;;;;;;;;;0.00;0.00;;;;;;;;4859879;29;45469;-82
2022/11/18 04:32:25;;;;;;;;;0.67;0.00;;;;;;;;4861220;29;45490;-82
2022/11/18 04:34:51;;;;;;;;;0.50;0.00;;;;;;;;4860810;29;46378;-82
2022/11/18 04:37:16;;;;;;;;;0.00;0.00;;;;;;;;4864064;29;45819;-82
2022/11/18 04:39:41;;;;;;;;;0.00;0.00;;;;;;;;4860632;29;45398;-81
2022/11/18 04:42:06;;;;;;;;;0.00;0.00;;;;;;;;4866601;29;45804;-81
2022/11/18 04:44:32;;;;;;;;;0.00;0.00;;;;;;;;4856706;29;46513;-82
2022/11/18 04:46:59;;;;;;;;;0.00;0.00;;;;;;;;4865350;29;45817;-82
2022/11/18 04:49:25;;;;;;;;;0.00;0.00;;;;;;;;4858343;29;45402;-82
2022/11/18 04:51:51;;;;;;;;;1.00;0.00;;;;;;;;4861071;29;45482;-82
2022/11/18 04:54:16;;;;;;;;;2.00;0.00;;;;;;;;4860069;29;46195;-82
2022/11/18 04:56:42;;;;;;;;;0.33;0.33;;;;;;;;4862651;29;45494;-82
2022/11/18 04:59:08;;;;;;;;;1.00;0.00;;;;;;;;4859976;29;45615;-82
2022/11/18 05:01:33;;;;;;;;;2.00;1.00;;;;;;;;4843577;29;45606;-82
2022/11/18 05:04:00;;;;;;;;;1.00;0.00;;;;;;;;4864219;29;46060;-82
2022/11/18 05:06:25;;;;;;;;;0.00;0.00;;;;;;;;4860349;29;45396;-81
2022/11/18 05:08:54;;;;;;;;;2.00;0.00;;;;;;;;4862146;29;45492;-81
2022/11/18 05:14:04;;;;;;;;;0.00;0.00;;;;;;;;4859708;29;45550;-82
2022/11/18 05:16:29;;;;;;;;;0.00;0.00;;;;;;;;4857529;29;45915;-83
2022/11/18 05:18:55;;;;;;;;;0.00;0.00;;;;;;;;4858762;29;45491;-84
2022/11/18 05:21:20;;;;;;;;;0.00;0.00;;;;;;;;4864112;29;45607;-83
2022/11/18 05:23:45;;;;;;;;;0.00;0.00;;;;;;;;4848288;29;47101;-81
2022/11/18 05:26:11;;;;;;;;;1.67;0.00;;;;;;;;4868079;29;45511;-83
2022/11/18 05:28:36;;;;;;;;;2.00;0.00;;;;;;;;4867502;29;45545;-83
2022/11/18 05:31:06;;;;;;;;;0.00;0.00;;;;;;;;4861245;29;45639;-85
2022/11/18 05:33:31;;;;;;;;;0.00;0.00;;;;;;;;4864836;29;45621;-85
2022/11/18 05:35:56;;;;;;;;;0.33;0.33;;;;;;;;4859671;29;45328;-84
2022/11/18 05:38:22;;;;;;;;;1.00;0.00;;;;;;;;4859912;29;45501;-83
2022/11/18 05:40:47;;;;;;;;;1.00;0.67;;;;;;;;4860111;29;45454;-83
2022/11/18 05:43:12;;;;;;;;;0.00;0.00;;;;;;;;4859222;29;46631;-83
2022/11/18 05:45:42;;;;;;;;;2.00;0.67;;;;;;;;4860116;29;45358;-83
2022/11/18 05:48:08;;;;;;;;;1.33;1.00;;;;;;;;4862075;29;45388;-82
2022/11/18 05:50:34;;;;;;;;;2.00;0.00;;;;;;;;4859956;29;45842;-84
2022/11/18 05:53:00;;;;;;;;;2.00;0.00;;;;;;;;4860521;29;45550;-82
2022/11/18 05:55:48;;;;;;;;;0.00;0.00;;;;;;;;4859334;29;45715;-83
2022/11/18 05:58:14;;;;;;;;;0.67;0.67;;;;;;;;4857947;29;46988;-82
2022/11/18 06:00:39;;;;;;;;;0.00;0.00;;;;;;;;4858506;29;45391;-84
2022/11/18 06:03:11;;;;;;;;;0.33;0.00;;;;;;;;4861075;29;47495;-83
2022/11/18 06:05:36;;;;;;;;;0.00;0.00;;;;;;;;4858910;29;45550;-84
2022/11/18 06:08:01;;;;;;;;;2.00;1.00;;;;;;;;4858987;29;45457;-84
2022/11/18 06:10:29;;;;;;;;;2.00;0.67;;;;;;;;4859890;29;45496;-83
2022/11/18 06:12:57;;;;;;;;;0.00;0.00;;;;;;;;4843411;29;48523;-84
2022/11/18 06:15:24;;;;;;;;;1.00;1.00;;;;;;;;4863270;29;45324;-83
2022/11/18 06:17:58;;;;;;;;;2.00;2.00;;;;;;;;4859093;29;45652;-83
2022/11/18 06:20:24;;;;;;;;;0.00;0.00;;;;;;;;4862431;29;45582;-86
2022/11/18 06:23:05;;;;;;;;;1.00;0.00;;;;;;;;4862108;29;46464;-88
2022/11/18 06:25:32;;;;;;;;;1.00;1.00;;;;;;;;4860576;29;45641;-86
2022/11/18 06:28:03;;;;;;;;;1.00;1.00;;;;;;;;4865937;29;45771;-83
2022/11/18 06:30:28;;;;;;;;;2.33;0.00;;;;;;;;4864431;29;45810;-85
2022/11/18 06:32:54;;;;;;;;;3.00;1.00;;;;;;;;4860812;29;47411;-85
2022/11/18 06:35:19;;;;;;;;;1.67;1.67;;;;;;;;4864622;29;45447;-85
2022/11/18 06:37:45;;;;;;;;;2.33;1.00;;;;;;;;4871495;29;45486;-85
2022/11/18 06:40:10;;;;;;;;;1.50;0.50;;;;;;;;4867718;29;45586;-84
2022/11/18 06:46:54;;;;;;;;;0.67;0.00;;;;;;;;4860701;29;45774;-87
2022/11/18 06:48:31;;;;;;;;;1.00;1.00;;;;;;;;4878260;29;45533;-85
2022/11/18 06:50:56;;;;;;;;;0.00;0.00;;;;;;;;4879307;29;45433;-84
2022/11/18 06:53:22;;;;;;;;;0.00;0.00;;;;;;;;4879501;29;45567;-86
2022/11/18 06:56:22;;;;;;;;;3.00;1.00;;;;;;;;4879349;29;45488;-83
2022/11/18 06:58:51;;;;;;;;;3.00;3.00;;;;;;;;4834989;29;45654;-85
2022/11/18 07:01:20;;;;;;;;;4.33;4.33;;;;;;;;4842767;29;45503;-84
2022/11/18 07:03:45;;;;;;;;;3.00;1.00;;;;;;;;4854684;29;46553;-85
2022/11/18 07:06:11;;;;;;;;;0.00;0.00;;;;;;;;4851779;29;46967;-84
2022/11/18 07:08:37;;;;;;;;;1.00;1.00;;;;;;;;4849056;29;45532;-84
2022/11/18 07:11:04;;;;;;;;;1.00;1.00;;;;;;;;4843024;29;45647;-85
2022/11/18 07:13:30;;;;;;;;;2.00;1.00;;;;;;;;4841379;29;45647;-84
2022/11/18 07:15:55;;;;;;;;;4.00;1.00;;;;;;;;4842203;29;45561;-84
2022/11/18 07:18:20;;;;;;;;;1.67;1.33;;;;;;;;4842300;29;45779;-84
2022/11/18 07:20:45;;;;;;;;;0.33;0.33;;;;;;;;4828674;29;45422;-84
2022/11/18 07:23:10;;;;;;;;;0.67;0.67;;;;;;;;4844838;29;46411;-81
2022/11/18 07:25:36;;;;;;;;;4.67;2.00;;;;;;;;4828714;29;45955;-81
2022/11/18 07:28:01;;;;;;;;;4.33;1.33;;;;;;;;4824396;29;45599;-81
2022/11/18 07:30:26;;;;;;;;;2.00;2.00;;;;;;;;4845115;29;45464;-80
2022/11/18 07:32:51;;;;;;;;;1.00;1.00;;;;;;;;4845561;29;45425;-85
2022/11/18 07:35:17;;;;;;;;;0.00;0.00;;;;;;;;4861898;29;45725;-85
2022/11/18 07:37:43;;;;;;;;;2.00;1.00;;;;;;;;4867018;29;45526;-80
2022/11/18 07:40:08;;;;;;;;;1.00;1.00;;;;;;;;4867484;29;45437;-79
2022/11/18 07:42:41;;;;;;;;;3.33;3.33;;;;;;;;4865862;29;45920;-81
2022/11/18 07:45:07;;;;;;;;;8.67;5.67;;;;;;;;4859171;29;45553;-79
2022/11/18 07:47:32;;;;;;;;;4.00;2.00;;;;;;;;4857065;29;45321;-78
2022/11/18 07:49:58;;;;;;;;;2.33;2.33;;;;;;;;4865691;29;45605;-77
2022/11/18 07:52:23;;;;;;;;;6.00;5.00;;;;;;;;4877511;29;46204;-78
2022/11/18 07:54:48;;;;;;;;;5.67;4.33;;;;;;;;4867793;29;45510;-81
2022/11/18 07:57:14;;;;;;;;;1.00;1.00;;;;;;;;4864965;29;45332;-82
2022/11/18 07:59:39;;;;;;;;;1.00;1.00;;;;;;;;4864358;29;45332;-80
2022/11/18 08:02:05;;;;;;;;;1.33;1.33;;;;;;;;4866019;29;45508;-82
2022/11/18 08:04:30;;;;;;;;;2.67;2.00;;;;;;;;4863266;29;45473;-80
2022/11/18 08:06:56;;;;;;;;;2.00;1.00;;;;;;;;4866165;29;46363;-80
2022/11/18 08:09:21;;;;;;;;;3.00;1.00;;;;;;;;4862721;29;45560;-79
2022/11/18 08:11:46;;;;;;;;;1.33;1.33;;;;;;;;4866195;29;45851;-79
2022/11/18 08:14:11;;;;;;;;;4.00;2.33;;;;;;;;4856220;29;45678;-81
2022/11/18 08:16:37;;;;;;;;;2.00;1.00;;;;;;;;4865892;29;45381;-84
2022/11/18 08:19:02;;;;;;;;;2.00;2.00;;;;;;;;4846243;29;45519;-83
2022/11/18 08:21:27;;;;;;;;;2.33;2.33;;;;;;;;4875356;29;46447;-83
2022/11/18 08:24:05;;;;;;;;;1.00;1.00;;;;;;;;4878030;29;45507;-86
2022/11/18 08:26:30;;;;;;;;;2.00;2.00;;;;;;;;4845033;29;45478;-81
2022/11/18 08:28:55;;;;;;;;;2.67;1.67;;;;;;;;4863390;29;45441;-85
2022/11/18 08:31:24;;;;;;;;;3.00;1.00;;;;;;;;4865514;29;46485;-85
2022/11/18 08:33:53;;;;;;;;;2.00;1.00;;;;;;;;4844825;29;45953;-85
2022/11/18 08:36:21;;;;;;;;;4.33;3.00;;;;;;;;4867225;29;45425;-80
2022/11/18 08:38:47;;;;;;;;;4.00;2.00;;;;;;;;4868489;29;45880;-82
2022/11/18 08:41:13;;;;;;;;;2.67;2.00;;;;;;;;4865592;29;45565;-83
2022/11/18 08:43:38;;;;;;;;;5.00;2.00;;;;;;;;4843570;29;45654;-85
2022/11/18 08:46:03;;;;;;;;;2.00;2.00;;;;;;;;4868850;29;45440;-88
2022/11/18 08:48:29;;;;;;;;;3.00;2.00;;;;;;;;4869191;29;45808;-87
2022/11/18 08:50:54;;;;;;;;;3.00;3.00;;;;;;;;4863159;29;45564;-83
2022/11/18 09:07:37;;;;;;;;;4.00;2.00;;;;;;;;5230939;23;45508;-83
2022/11/18 09:10:03;;;;;;;;;2.00;2.00;;;;;;;;4882045;29;45608;-82
2022/11/18 09:12:28;;;;;;;;;1.67;1.67;;;;;;;;4912633;28;45567;-84
2022/11/18 09:14:53;;;;;;;;;2.00;2.00;;;;;;;;4891344;29;45505;-84
2022/11/18 09:17:18;;;;;;;;;2.67;1.00;;;;;;;;4902581;28;45619;-83
2022/11/18 09:19:44;;;;;;;;;1.00;1.00;;;;;;;;4897408;28;45524;-83
2022/11/18 09:22:09;;;;;;;;;1.33;1.33;;;;;;;;4899843;28;45688;-83
2022/11/18 09:24:35;;;;;;;;;2.33;1.33;;;;;;;;4901323;28;45501;-83
2022/11/18 09:27:04;;;;;;;;;1.00;1.00;;;;;;;;4899646;28;45870;-84
2022/11/18 09:29:30;;;;;;;;;2.00;2.00;;;;;;;;4911015;28;45571;-82
2022/11/18 09:31:55;;;;;;;;;0.00;0.00;;;;;;;;4909079;28;46155;-83
2022/11/18 09:34:20;;;;;;;;;0.00;0.00;;;;;;;;4898511;28;45737;-83
2022/11/18 09:36:46;;;;;;;;;0.67;0.67;;;;;;;;4880928;29;45495;-84
2022/11/18 09:39:11;;;;;;;;;1.00;0.67;;;;;;;;4898900;29;45542;-84
2022/11/18 09:41:47;;;;;;;;;3.00;3.00;;;;;;;;4897980;28;45422;-83
2022/11/18 09:44:18;;;;;;;;;0.67;0.67;;;;;;;;4890051;29;45387;-83
2022/11/18 09:46:56;;;;;;;;;1.33;1.00;;;;;;;;4883015;29;45717;-83
2022/11/18 09:49:21;;;;;;;;;1.67;0.67;;;;;;;;4902190;29;45479;-83
2022/11/18 09:51:47;;;;;;;;;2.67;1.00;;;;;;;;4883278;29;47505;-83
2022/11/18 09:54:20;;;;;;;;;1.00;1.00;;;;;;;;4901537;29;45472;-82
2022/11/18 09:56:47;;;;;;;;;0.00;0.00;;;;;;;;4912501;28;45483;-82
2022/11/18 09:59:13;;;;;;;;;1.33;1.33;;;;;;;;4901700;29;45694;-83
2022/11/18 10:01:39;;;;;;;;;0.00;0.00;;;;;;;;4901560;28;45483;-83
2022/11/18 10:04:04;;;;;;;;;0.33;0.33;;;;;;;;4901515;29;46495;-84
2022/11/18 10:06:32;;;;;;;;;0.67;0.00;;;;;;;;4901542;28;45407;-83
2022/11/18 10:08:58;;;;;;;;;0.00;0.00;;;;;;;;4901664;29;45514;-81
2022/11/18 10:11:24;;;;;;;;;0.00;0.00;;;;;;;;4900902;28;47096;-81
2022/11/18 10:13:49;;;;;;;;;3.00;0.00;;;;;;;;4884183;29;45561;-81
2022/11/18 10:16:24;;;;;;;;;0.00;0.00;;;;;;;;4884708;29;45597;-88
2022/11/18 10:18:56;;;;;;;;;0.00;0.00;;;;;;;;4885263;29;45631;-88
2022/11/18 10:21:30;;;;;;;;;1.33;0.33;;;;;;;;4901112;28;45478;-86
2022/11/18 10:26:58;;;;;;;;;0.75;0.00;;;;;;;;5109593;23;45570;-85
2022/11/18 10:29:24;;;;;;;;;0.00;0.00;;;;;;;;4916348;23;45602;-86
2022/11/18 10:32:00;;;;;;;;;0.00;0.00;;;;;;;;4883156;23;47078;-87
2022/11/18 10:37:35;;;;;;;;;0.75;0.75;;;;;;;;4870722;29;45583;-86
2022/11/18 10:56:42;;;;;;;;;0.00;0.00;;;;;;;;5058834;23;45975;-86
2022/11/18 11:04:50;;;;;;;;;0.00;0.00;;;;;;;;5986039;23;46102;-88
2022/11/18 11:16:35;;;;;;;;;0.25;0.25;;;;;;;;5324809;23;45450;-87
2022/11/18 11:19:23;;;;;;;;;0.00;0.00;;;;;;;;4894862;28;45531;-87
2022/11/18 11:21:48;;;;;;;;;0.00;0.00;;;;;;;;4906038;28;45446;-83
2022/11/18 11:24:16;;;;;;;;;0.00;0.00;;;;;;;;4912531;28;45329;-84
2022/11/18 11:26:55;;;;;;;;;3.00;0.00;;;;;;;;4904554;28;46597;-83
2022/11/18 11:29:39;;;;;;;;;0.00;0.00;;;;;;;;4900422;28;45483;-89
2022/11/18 11:41:26;;;;;;;;;2.00;0.00;;;;;;;;4788025;23;46868;-82
2022/11/18 11:43:51;;;;;;;;;0.00;0.00;;;;;;;;5170695;23;45443;-81
2022/11/18 11:46:31;;;;;;;;;0.50;0.00;;;;;;;;4887538;29;45488;-84
2022/11/18 11:49:00;;;;;;;;;1.00;1.00;;;;;;;;4893344;29;46486;-85
2022/11/18 11:51:38;;;;;;;;;1.00;1.00;;;;;;;;4896554;29;45503;-85
2022/11/18 11:59:51;;;;;;;;;0.00;0.00;;;;;;;;4219600;23;46168;-83
2022/11/18 12:02:22;;;;;;;;;1.50;0.00;;;;;;;;4880633;29;45449;-83
2022/11/18 12:08:00;;;;;;;;;0.00;0.00;;;;;;;;4907719;23;45937;-84
2022/11/18 12:10:40;;;;;;;;;1.25;0.50;;;;;;;;4880260;29;47496;-84
2022/11/18 12:13:27;;;;;;;;;0.00;0.00;;;;;;;;5103066;23;47669;-84
2022/11/18 12:16:11;;;;;;;;;0.00;0.00;;;;;;;;4888999;29;45568;-85
2022/11/18 12:18:39;;;;;;;;;0.00;0.00;;;;;;;;4892959;29;45582;-86
2022/11/18 12:21:10;;;;;;;;;0.00;0.00;;;;;;;;4896636;29;45524;-84
2022/11/18 12:30:19;;;;;;;;;0.00;0.00;;;;;;;;4879529;29;45787;-84
2022/11/18 12:38:51;;;;;;;;;0.00;0.00;;;;;;;;4904309;23;46357;-88
2022/11/18 12:47:50;;;;;;;;;0.00;0.00;;;;;;;;4811670;29;45485;-86
2022/11/18 12:52:42;;;;;;;;;1.00;0.00;;;;;;;;4882564;29;46217;-87
2022/11/18 12:58:43;;;;;;;;;0.00;0.00;;;;;;;;4881006;29;45746;-86
2022/11/18 13:01:16;;;;;;;;;0.00;0.00;;;;;;;;4873673;29;45647;-87
2022/11/18 13:03:42;;;;;;;;;2.25;0.00;;;;;;;;4874962;29;45582;-87
2022/11/18 13:06:29;;;;;;;;;0.00;0.00;;;;;;;;4879590;29;46191;-85
2022/11/18 13:09:17;;;;;;;;;0.00;0.00;;;;;;;;5026689;23;45530;-87
2022/11/18 13:20:38;;;;;;;;;0.00;0.00;;;;;;;;4915394;23;45781;-87
2022/11/18 13:26:13;;;;;;;;;0.00;0.00;;;;;;;;4999968;23;45540;-87
2022/11/18 13:28:46;;;;;;;;;0.00;0.00;;;;;;;;4888273;28;46860;-86
2022/11/18 13:31:31;;;;;;;;;0.00;0.00;;;;;;;;4894618;28;45539;-88
2022/11/18 13:33:59;;;;;;;;;1.00;1.00;;;;;;;;4898559;28;45465;-87
2022/11/18 13:39:31;;;;;;;;;0.00;0.00;;;;;;;;5311404;23;45388;-88
2022/11/18 13:47:28;;;;;;;;;0.00;0.00;;;;;;;;2248732;23;46055;-87
2022/11/18 13:55:08;;;;;;;;;0.00;0.00;;;;;;;;5097329;23;47363;-86
2022/11/18 13:57:39;;;;;;;;;0.25;0.25;;;;;;;;4900709;28;45465;-86
2022/11/18 14:06:32;;;;;;;;;0.00;0.00;;;;;;;;4908852;28;45353;-87
2022/11/18 14:09:12;;;;;;;;;0.00;0.00;;;;;;;;4904068;28;46473;-85
2022/11/18 14:11:42;;;;;;;;;0.00;0.00;;;;;;;;4907178;28;45456;-84
2022/11/18 14:14:09;;;;;;;;;6.00;6.00;;;;;;;;4901390;28;45427;-83
2022/11/18 14:16:35;;;;;;;;;1.33;1.33;;;;;;;;4901410;28;45491;-83
2022/11/18 14:19:01;;;;;;;;;3.00;0.00;;;;;;;;4884926;28;45445;-84
2022/11/18 14:21:34;;;;;;;;;0.25;0.00;;;;;;;;5291271;23;45499;-84
2022/11/18 14:27:35;;;;;;;;;0.00;0.00;;;;;;;;4901755;28;45534;-83
2022/11/18 14:30:01;;;;;;;;;0.00;0.00;;;;;;;;4823815;29;45464;-83
2022/11/18 14:32:26;;;;;;;;;0.00;0.00;;;;;;;;4807720;29;47162;-83
2022/11/18 14:35:00;;;;;;;;;0.00;0.00;;;;;;;;4822437;29;45632;-83
2022/11/18 14:46:27;;;;;;;;;1.00;0.00;;;;;;;;4866024;29;45508;-82
2022/11/18 14:49:23;;;;;;;;;1.00;0.00;;;;;;;;4858810;29;45869;-84
2022/11/18 14:54:51;;;;;;;;;1.67;1.00;;;;;;;;4886465;23;45715;-88
2022/11/18 14:57:17;;;;;;;;;0.00;0.00;;;;;;;;4877670;29;45597;-84
2022/11/18 14:59:43;;;;;;;;;2.00;2.00;;;;;;;;4846616;23;1196048;-82
2022/11/18 15:04:49;;;;;;;;;0.50;0.50;;;;;;;;4879436;29;45909;-84
2022/11/18 15:07:15;;;;;;;;;0.50;0.00;;;;;;;;4880696;29;45514;-86
2022/11/18 15:09:40;;;;;;;;;1.00;0.00;;;;;;;;4871047;29;45555;-84
2022/11/18 15:12:05;;;;;;;;;0.00;0.00;;;;;;;;4845215;29;45689;-84
2022/11/18 15:17:18;;;;;;;;;0.00;0.00;;;;;;;;4896213;23;45937;-83
2022/11/18 15:19:43;;;;;;;;;0.00;0.00;;;;;;;;4888973;29;45514;-83
2022/11/18 15:22:09;;;;;;;;;0.00;0.00;;;;;;;;4889248;29;45464;-83
2022/11/18 15:24:34;;;;;;;;;0.25;0.25;;;;;;;;4876628;29;47085;-83
2022/11/18 15:27:03;;;;;;;;;0.00;0.00;;;;;;;;5071678;23;45492;-84
2022/11/18 15:29:29;;;;;;;;;1.33;1.33;;;;;;;;4923484;23;45403;-83
2022/11/18 15:31:54;;;;;;;;;5.33;1.33;;;;;;;;4908016;23;45593;-83
2022/11/18 15:34:19;;;;;;;;;0.00;0.00;;;;;;;;4900456;28;46147;-83
2022/11/18 15:36:45;;;;;;;;;0.00;0.00;;;;;;;;4889604;29;45496;-82
2022/11/18 15:39:10;;;;;;;;;0.00;0.00;;;;;;;;4900658;29;45443;-82
2022/11/18 15:41:39;;;;;;;;;0.00;0.00;;;;;;;;4899357;28;45535;-84
2022/11/18 15:44:04;;;;;;;;;1.00;1.00;;;;;;;;4887969;29;47373;-84
2022/11/18 15:46:32;;;;;;;;;2.00;0.00;;;;;;;;4900300;28;45767;-84
2022/11/18 15:48:58;;;;;;;;;1.00;1.00;;;;;;;;4900597;28;45510;-84
2022/11/18 15:51:24;;;;;;;;;1.00;0.33;;;;;;;;4889551;28;45839;-85
2022/11/18 15:53:49;;;;;;;;;2.33;2.33;;;;;;;;4900278;28;45430;-83
2022/11/18 15:56:17;;;;;;;;;77.25;62.00;;;;;;;;4899930;29;45468;-81
2022/11/18 15:58:43;;;;;;;;;8.33;8.33;;;;;;;;4898223;29;45738;-85
2022/11/18 16:01:08;;;;;;;;;2.00;1.00;;;;;;;;4895318;29;45403;-89
2022/11/18 16:03:55;;;;;;;;;1.67;1.67;;;;;;;;4898397;29;47118;-87
2022/11/18 16:06:21;;;;;;;;;2.00;2.00;;;;;;;;4894616;28;45771;-84
2022/11/18 16:08:46;;;;;;;;;2.33;2.33;;;;;;;;4899164;28;46372;-85
2022/11/18 16:14:03;;;;;;;;;5.00;4.00;;;;;;;;4901402;28;45985;-88
2022/11/18 16:16:29;;;;;;;;;4.00;4.00;;;;;;;;4881741;29;45458;-85
2022/11/18 16:18:58;;;;;;;;;6.00;4.00;;;;;;;;4895595;28;45683;-86
2022/11/18 16:21:31;;;;;;;;;8.33;6.67;;;;;;;;4894033;28;45474;-90
2022/11/18 16:23:57;;;;;;;;;4.00;4.00;;;;;;;;4904042;28;46630;-88
2022/11/18 16:26:26;;;;;;;;;2.00;2.00;;;;;;;;4902154;28;46159;-88
2022/11/18 16:28:52;;;;;;;;;4.67;4.67;;;;;;;;4900245;28;45883;-88
2022/11/18 16:34:11;;;;;;;;;2.33;1.67;;;;;;;;4901224;28;45348;-88
2022/11/18 16:36:37;;;;;;;;;3.00;2.67;;;;;;;;4900042;28;45548;-86
2022/11/18 16:39:04;;;;;;;;;2.33;2.00;;;;;;;;4897307;28;45722;-83
2022/11/18 16:41:32;;;;;;;;;1.00;1.00;;;;;;;;4902288;28;45569;-88
2022/11/18 16:44:04;;;;;;;;;3.00;2.00;;;;;;;;4902140;28;46428;-93
2022/11/18 16:46:30;;;;;;;;;1.67;1.00;;;;;;;;4901360;29;45511;-89
2022/11/18 16:49:02;;;;;;;;;4.00;2.00;;;;;;;;4912651;28;45448;-88
2022/11/18 16:51:29;;;;;;;;;2.00;2.00;;;;;;;;4887070;29;45453;-88
2022/11/18 16:54:06;;;;;;;;;2.67;2.67;;;;;;;;4883818;29;47342;-86
2022/11/18 16:56:33;;;;;;;;;2.50;2.00;;;;;;;;4905884;28;45750;-89
2022/11/18 16:59:02;;;;;;;;;4.00;4.00;;;;;;;;4903388;28;45597;-85
2022/11/18 17:01:28;;;;;;;;;3.33;3.33;;;;;;;;4897102;28;45478;-87
2022/11/18 17:03:53;;;;;;;;;4.33;4.33;;;;;;;;4897515;29;46095;-90
2022/11/18 17:06:19;;;;;;;;;5.33;5.33;;;;;;;;4883965;29;45454;-87
2022/11/18 17:08:45;;;;;;;;;6.67;5.00;;;;;;;;4889276;29;45446;-95
2022/11/18 17:11:10;;;;;;;;;5.33;5.33;;;;;;;;4895153;28;45441;-91
2022/11/18 17:13:40;;;;;;;;;6.33;6.33;;;;;;;;4899990;28;45437;-89
2022/11/18 17:16:07;;;;;;;;;3.67;3.67;;;;;;;;4898488;29;45574;-83
2022/11/18 17:21:37;;;;;;;;;6.33;5.00;;;;;;;;4897621;28;45475;-87
2022/11/18 17:24:19;;;;;;;;;8.00;6.33;;;;;;;;4897016;28;46850;-85
2022/11/18 17:26:44;;;;;;;;;4.00;3.00;;;;;;;;4902465;28;45507;-90
2022/11/18 17:29:13;;;;;;;;;5.33;4.67;;;;;;;;4882503;29;45550;-87
2022/11/18 17:31:45;;;;;;;;;11.33;7.33;;;;;;;;4886149;28;45526;-86
2022/11/18 17:34:25;;;;;;;;;6.00;6.00;;;;;;;;4879780;29;47013;-89
2022/11/18 17:36:59;;;;;;;;;4.67;3.00;;;;;;;;4885406;29;45395;-89
2022/11/18 17:39:28;;;;;;;;;4.67;3.33;;;;;;;;4886242;29;46875;-86